Flight Track Log - Related Links

Times and Time Zones

All times are in EDT time to prevent confusion due to time zone crossing. See the TRS1254 flight status page for this flight to view local times or setup timezone preferences in your user account.

Time Position Orientation Groundspeed Altitude Reporting Facility
EDT Latitude Longitude Course Direction KTS MPH feet Rate Location/Type
Thu 03:47:51 PM 27.4000 -82.5667 270° West 164 189 900  Level Tampa TRACON
Thu 03:48:45 PM 27.4000 -82.6167 270° West 202 232 2,800 2,100 Climbing Tampa TRACON
Thu 03:49:51 PM 27.4000 -82.7000 310° West 258 297 5,100 2,429 Climbing Tampa TRACON
Thu 03:50:51 PM 27.4500 -82.7667 350° North 264 304 7,900 2,377 Climbing Tampa TRACON
Thu 03:52:25 PM 27.5669 -82.7897 359° North 283 326 11,200 1,910 Climbing Miami Center
Thu 03:54:12 PM 27.7325 -82.7917 North 375 432 14,300 1,868 Climbing Jacksonville Center
Thu 03:55:12 PM 27.8389 -82.7894 359° North 375 432 16,400 1,950 Climbing Jacksonville Center
Thu 03:56:12 PM 27.9494 -82.7917 North 380 437 18,200 1,750 Climbing Jacksonville Center
Thu 03:57:12 PM 28.0686 -82.7867 359° North 400 460 19,900 900 Climbing Jacksonville Center
Thu 03:58:12 PM 28.1853 -82.7889 356° North 410 472 20,000 807 Climbing Jacksonville Center
Thu 03:59:11 PM 28.3022 -82.7983 343° North 415 478 21,500 1,866 Climbing Jacksonville Center
Thu 04:00:11 PM 28.4128 -82.8358 342° North 420 483 23,700 1,934 Climbing Jacksonville Center
Thu 04:01:12 PM 28.5256 -82.8783 340° North 415 478 25,400 1,587 Climbing Jacksonville Center
Thu 04:02:12 PM 28.6425 -82.9258 345° North 432 497 26,900 1,400 Climbing Jacksonville Center
Thu 04:03:12 PM 28.7656 -82.9636 342° North 443 510 28,200 1,400 Climbing Jacksonville Center
Thu 04:04:12 PM 28.8886 -83.0089 343° North 455 524 29,700 1,550 Climbing Jacksonville Center
Thu 04:05:12 PM 29.0117 -83.0517 343° North 461 531 31,300 1,150 Climbing Jacksonville Center
Thu 04:06:12 PM 29.1306 -83.0922 343° North 461 531 32,000 350 Climbing Jacksonville Center
Thu 04:07:12 PM 29.2517 -83.1353 343° North 456 525 32,000 -50 Level Jacksonville Center
Thu 04:08:12 PM 29.3728 -83.1786 342° North 456 525 31,900  Descending Jacksonville Center
Thu 04:09:12 PM 29.5042 -83.2267 344° North 456 525 32,000 50 Climbing Jacksonville Center
Thu 04:10:12 PM 29.6125 -83.2628 341° North 445 512 32,000 -50 Level Jacksonville Center
Thu 04:11:12 PM 29.7314 -83.3086 343° North 445 512 31,900 200 Descending Jacksonville Center
Thu 04:12:12 PM 29.8628 -83.3547 343° North 445 512 32,400 550 Climbing Jacksonville Center
Thu 04:13:12 PM 29.9836 -83.3961 343° North 445 512 33,000 400 Climbing Jacksonville Center
Thu 04:14:12 PM 30.1003 -83.4375 342° North 445 512 33,200 850 Climbing Jacksonville Center
Thu 04:15:12 PM 30.2192 -83.4814 342° North 445 512 34,700 1,300 Climbing Jacksonville Center
Thu 04:16:12 PM 30.3358 -83.5256 344° North 440 506 35,800 650 Climbing Jacksonville Center
Thu 04:17:12 PM 30.4528 -83.5650 341° North 440 506 36,000 100 Climbing Jacksonville Center
Thu 04:18:12 PM 30.5464 -83.6017 344° North 440 506 36,000  Level Jacksonville Center
Thu 04:19:12 PM 30.6714 -83.6436 342° North 440 506 36,000  Level Jacksonville Center
Thu 04:20:12 PM 30.7881 -83.6881 343° North 440 506 36,000  Level Jacksonville Center
Thu 04:21:12 PM 30.9028 -83.7278 343° North 440 506 36,000  Level Jacksonville Center
Thu 04:22:12 PM 31.0194 -83.7703 342° North 435 501 36,000  Level Jacksonville Center
Thu 04:23:12 PM 31.1339 -83.8150 343° North 435 501 36,000  Level Jacksonville Center
Thu 04:24:12 PM 31.2506 -83.8572 342° North 435 501 36,000  Level Jacksonville Center
Thu 04:25:19 PM 31.3917 -83.9125 343° North 444 511 36,000  Level Atlanta Center
Thu 04:26:19 PM 31.5067 -83.9536 347° North 439 505 36,000  Level Atlanta Center
Thu 04:27:19 PM 31.6256 -83.9853 350° North 439 505 36,000  Level Atlanta Center
Thu 04:28:20 PM 31.7486 -84.0119 349° North 439 505 36,000  Level Atlanta Center
Thu 04:29:19 PM 31.8553 -84.0364 350° North 439 505 36,000  Level Atlanta Center
Thu 04:30:19 PM 31.9742 -84.0608 349° North 439 505 36,000  Level Atlanta Center
Thu 04:31:19 PM 32.0972 -84.0878 349° North 434 499 36,000  Level Atlanta Center
Thu 04:32:19 PM 32.2183 -84.1150 349° North 434 499 36,000  Level Atlanta Center
Thu 04:33:19 PM 32.3394 -84.1422 348° North 434 499 36,000  Level Atlanta Center
Thu 04:34:19 PM 32.4603 -84.1717 350° North 434 499 36,000  Level Atlanta Center
Thu 04:35:20 PM 32.5794 -84.1967 349° North 428 493 36,000  Level Atlanta Center
Thu 04:36:19 PM 32.6961 -84.2239 349° North 428 493 36,000  Level Atlanta Center
Thu 04:37:19 PM 32.8275 -84.2539 348° North 428 493 36,000  Level Atlanta Center
Thu 04:38:20 PM 32.9467 -84.2839 350° North 435 501 36,000  Level Atlanta Center
Thu 04:39:20 PM 33.0656 -84.3089 350° North 430 495 36,000  Level Atlanta Center
Thu 04:40:19 PM 33.1844 -84.3342 350° North 430 495 36,000  Level Atlanta Center
Thu 04:41:20 PM 33.2992 -84.3594 348° North 425 489 36,000  Level Atlanta Center
Thu 04:42:19 PM 33.4158 -84.3897 350° North 430 495 36,000  Level Atlanta Center
Thu 04:43:20 PM 33.5347 -84.4150 348° North 430 495 36,000  Level Atlanta Center
Thu 04:44:19 PM 33.6411 -84.4431 350° North 430 495 36,000  Level Atlanta Center
Thu 04:45:20 PM 33.7581 -84.4686 349° North 424 488 36,000  Level Atlanta Center
Thu 04:46:20 PM 33.8769 -84.4967 349° North 429 494 36,000  Level Atlanta Center
Thu 04:47:19 PM 33.9917 -84.5247 355° North 429 494 36,000  Level Atlanta Center
Thu 04:48:20 PM 34.1272 -84.5381 354° North 435 501 36,000  Level Atlanta Center
Thu 04:49:19 PM 34.2481 -84.5539 351° North 435 501 36,000  Level Atlanta Center
Thu 04:50:20 PM 34.3669 -84.5772 349° North 435 501 36,000  Level Atlanta Center
Thu 04:51:20 PM 34.4839 -84.6058 349° North 427 491 36,000  Level Atlanta Center
Thu 04:52:20 PM 34.6006 -84.6344 346° North 427 491 36,000  Level Atlanta Center
Thu 04:53:20 PM 34.7131 -84.6681 349° North 425 489 36,000  Level Atlanta Center
Thu 04:54:19 PM 34.8297 -84.6967 348° North 425 489 36,000  Level Atlanta Center
Thu 04:55:20 PM 34.9506 -84.7281 348° North 432 497 36,000  Level Atlanta Center
Thu 04:56:19 PM 35.0694 -84.7594 349° North 432 497 36,000  Level Atlanta Center
Thu 04:57:19 PM 35.1881 -84.7883 348° North 432 497 36,000  Level Atlanta Center
Thu 04:58:19 PM 35.3089 -84.8200 348° North 432 497 36,000  Level Atlanta Center
Thu 04:59:20 PM 35.4297 -84.8519 348° North 432 497 36,000  Level Atlanta Center
Thu 05:00:19 PM 35.5486 -84.8836 348° North 432 497 36,000  Level Atlanta Center
Thu 05:01:20 PM 35.6672 -84.9156 348° North 432 497 36,000  Level Atlanta Center
Thu 05:03:19 PM 35.9108 -84.9800 348° North 477 549 36,000  Level Indianapolis Center
Thu 05:04:19 PM 36.0231 -85.0103 349° North 466 536 36,000  Level Indianapolis Center
Thu 05:05:19 PM 36.1417 -85.0381 350° North 454 522 36,000  Level Indianapolis Center
Thu 05:06:19 PM 36.2603 -85.0636 350° North 442 509 36,000  Level Indianapolis Center
Thu 05:07:19 PM 36.3808 -85.0892 349° North 437 503 36,000  Level Indianapolis Center
Thu 05:08:19 PM 36.4994 -85.1175 350° North 437 503 36,000  Level Indianapolis Center
Thu 05:09:19 PM 36.6200 -85.1431 350° North 432 497 36,000  Level Indianapolis Center
Thu 05:10:19 PM 36.7364 -85.1689 349° North 432 497 36,000  Level Indianapolis Center
Thu 05:11:19 PM 36.8569 -85.1975 351° North 432 497 36,000  Level Indianapolis Center
Thu 05:12:19 PM 36.9736 -85.2208 349° North 427 491 36,000  Level Indianapolis Center
Thu 05:13:19 PM 37.1044 -85.2522 350° North 427 491 36,000  Level Indianapolis Center
Thu 05:14:19 PM 37.2250 -85.2783 349° North 432 497 36,000  Level Indianapolis Center
Thu 05:15:19 PM 37.3456 -85.3075 349° North 437 503 36,000  Level Indianapolis Center
Thu 05:16:19 PM 37.4619 -85.3364 350° North 427 491 36,000  Level Indianapolis Center
Thu 05:17:19 PM 37.5806 -85.3628 350° North 427 491 36,000  Level Indianapolis Center
Thu 05:18:19 PM 37.7033 -85.3892 350° North 436 502 36,000  Level Indianapolis Center
Thu 05:19:19 PM 37.8217 -85.4158 353° North 436 502 36,000  Level Indianapolis Center
Thu 05:20:19 PM 37.9342 -85.4344 350° North 436 502 36,000  Level Indianapolis Center
Thu 05:21:19 PM 38.0525 -85.4614 349° North 436 502 36,000  Level Indianapolis Center
Thu 05:22:19 PM 38.1731 -85.4908 351° North 436 502 36,000 -450 Level Indianapolis Center
Thu 05:23:19 PM 38.2894 -85.5150 349° North 431 496 35,100 -900 Descending Indianapolis Center
Thu 05:24:19 PM 38.4058 -85.5447 349° North 426 490 34,200 -550 Descending Indianapolis Center
Thu 05:25:19 PM 38.5242 -85.5744 349° North 426 490 34,000 -300 Descending Indianapolis Center
Thu 05:26:19 PM 38.6383 -85.6017 351° North 426 490 33,600 -1,400 Descending Indianapolis Center
Thu 05:27:19 PM 38.7547 -85.6261 350° North 426 490 31,200 -1,800 Descending Indianapolis Center
Thu 05:28:19 PM 38.8711 -85.6536 348° North 426 490 30,000 -600 Descending Indianapolis Center
Thu 05:29:19 PM 38.9831 -85.6833 349° North 426 490 30,000  Level Indianapolis Center
Thu 05:30:19 PM 39.0953 -85.7108 350° North 415 478 30,000  Level Indianapolis Center
Thu 05:31:19 PM 39.2197 -85.7389 349° North 415 478 30,000 -100 Level Indianapolis Center
Thu 05:32:19 PM 39.3339 -85.7664 350° North 409 471 29,800 -450 Descending Indianapolis Center
Thu 05:33:19 PM 39.4503 -85.7942 350° North 409 471 29,100 -400 Descending Indianapolis Center
Thu 05:34:19 PM 39.5625 -85.8194 350° North 416 479 29,000 -302 Descending Indianapolis Center
Thu 05:36:18 PM 39.7894 -85.8728 349° North 409 471 28,200 -1,207 Descending Chicago Center
Thu 05:37:18 PM 39.9008 -85.9022 346° North 409 471 25,400 -2,100 Descending Chicago Center
Thu 05:38:18 PM 40.0103 -85.9372 340° North 409 471 24,000 -700 Descending Chicago Center
Thu 05:39:18 PM 40.1119 -85.9864 340° North 404 465 24,000 -300 Level Chicago Center
Thu 05:40:18 PM 40.2133 -86.0356 341° North 394 453 23,400 -800 Descending Chicago Center
Thu 05:41:18 PM 40.3169 -86.0822 339° North 387 445 22,400 -1,000 Descending Chicago Center
Thu 05:42:18 PM 40.4164 -86.1319 340° North 387 445 21,400 -1,000 Descending Chicago Center
Thu 05:43:18 PM 40.5136 -86.1792 340° North 376 433 20,400 -1,000 Descending Chicago Center
Thu 05:44:18 PM 40.6128 -86.2264 342° North 376 433 19,400 -950 Descending Chicago Center
Thu 05:45:18 PM 40.6972 -86.2633 339° North 376 433 18,500 -900 Descending Chicago Center
Thu 05:46:18 PM 40.8031 -86.3161 340° North 371 427 17,600 -1,650 Descending Chicago Center
Thu 05:47:18 PM 40.8958 -86.3611 340° North 361 415 15,200 -2,400 Descending Chicago Center
Thu 05:48:18 PM 40.9847 -86.4039 329° Northwest 354 407 12,800 -2,100 Descending Chicago Center
Thu 05:49:18 PM 41.0611 -86.4639 299° West 332 382 11,000 -950 Descending Chicago Center
Thu 05:50:18 PM 41.1011 -86.5611 310° West 323 372 10,900 -350 Descending Chicago Center
Thu 05:51:18 PM 41.1619 -86.6581 320° Northwest 340 391 10,300 -450 Descending Chicago Center
Thu 05:52:18 PM 41.2325 -86.7378 336° Northwest 321 369 10,000 -150 Descending Chicago Center
Thu 05:53:18 PM 41.3064 -86.7819 337° Northwest 293 337 10,000  Level Chicago Center
Thu 05:54:18 PM 41.3844 -86.8258 317° Northwest 299 344 10,000  Level Chicago Center
Thu 05:55:18 PM 41.4403 -86.8958 292° West 277 319 10,000 -850 Level Chicago Center
Thu 05:56:18 PM 41.4694 -86.9944 285° West 285 328 8,300 -1,200 Descending Chicago Center
Thu 05:58:38 PM 41.5167 -87.2333 270° West 280 322 6,000 -690 Descending Chicago TRACON
Thu 05:59:38 PM 41.5167 -87.3333 270° West 278 320 6,000 -333 Level Chicago TRACON
Thu 06:01:38 PM 41.5167 -87.5333 283° West 278 320 5,000 -467 Descending Chicago TRACON
Thu 06:02:38 PM 41.5333 -87.6333 285° West 279 321 4,600 -450 Descending Chicago TRACON
Thu 06:03:38 PM 41.5500 -87.7167 294° West 227 261 4,100 -526 Descending Chicago TRACON
Thu 06:04:32 PM 41.5667 -87.7667 304° West 187 215 3,600 -574 Descending Chicago TRACON
Thu 06:05:33 PM 41.6000 -87.8333 323° Northwest 189 217 3,000 -545 Descending Chicago TRACON
Thu 06:06:33 PM 41.6333 -87.8667 360° North 190 219 2,500 -250 Descending Chicago TRACON
Thu 06:07:33 PM 41.6833 -87.8667 37° Northeast 178 205 2,500 -150 Level Chicago TRACON
Thu 06:08:33 PM 41.7167 -87.8333 37° Northeast 151 174 2,200 -300 Descending Chicago TRACON

Login

Don't have an account? Register now (free) for customized features, flight alerts, and more!